Time;durP1;ratioP1;P1;durP2;ratioP2;P2;SDS_P1;SDS_P2;PMS_P1;PMS_P2;Temp;Humidity;BMP_temperature;BMP_pressure;BME280_temperature;BME280_humidity;BME280_pressure;Samples;Min_cycle;Max_cycle;Signal;HPM_P1;HPM_P2
2021/07/11 00:00:35;;;;;;;;;;;15.50;99.90;;;;;;5053504;28;19909;-54
2021/07/11 00:03:00;;;;;;;;;;;15.50;99.90;;;;;;5053372;28;20007;-54
2021/07/11 00:05:26;;;;;;;;;;;15.40;99.90;;;;;;5053620;28;20058;-50
2021/07/11 00:07:52;;;;;;;;;;;15.40;99.90;;;;;;5053658;28;19908;-53
2021/07/11 00:10:18;;;;;;;;;;;15.40;99.90;;;;;;5053377;28;19913;-54
2021/07/11 00:12:44;;;;;;;;;;;15.40;99.90;;;;;;5053538;28;20029;-52
2021/07/11 00:15:10;;;;;;;;;;;15.30;99.90;;;;;;5052747;28;20407;-55
2021/07/11 00:17:36;;;;;;;;;;;15.30;99.90;;;;;;5053154;28;20065;-54
2021/07/11 00:20:06;;;;;;;;;;;15.30;99.90;;;;;;5053007;28;19919;-52
2021/07/11 00:22:31;;;;;;;;;;;15.20;99.90;;;;;;5053368;28;19974;-52
2021/07/11 00:24:57;;;;;;;;;;;15.30;99.90;;;;;;5035238;28;20267;-53
2021/07/11 00:27:22;;;;;;;;;;;15.20;99.90;;;;;;5053175;28;19955;-55
2021/07/11 00:29:48;;;;;;;;;;;15.20;99.90;;;;;;5053103;28;19909;-53
2021/07/11 00:32:13;;;;;;;;;;;15.20;99.90;;;;;;5052754;28;19916;-51
2021/07/11 00:34:39;;;;;;;;;;;15.20;99.90;;;;;;5052765;28;19954;-52
2021/07/11 00:37:04;;;;;;;;;;;15.10;99.90;;;;;;5052783;28;19948;-53
2021/07/11 00:39:29;;;;;;;;;;;15.20;99.90;;;;;;5052806;28;19948;-52
2021/07/11 00:41:55;;;;;;;;;;;15.10;99.90;;;;;;5052840;28;20246;-51
2021/07/11 00:44:20;;;;;;;;;;;15.10;99.90;;;;;;5052869;28;19909;-53
2021/07/11 00:46:46;;;;;;;;;;;15.10;99.90;;;;;;5052613;28;20382;-55
2021/07/11 00:49:13;;;;;;;;;;;15.10;99.90;;;;;;5052233;28;19921;-53
2021/07/11 00:51:38;;;;;;;;;;;15.10;99.90;;;;;;5034861;28;19909;-52
2021/07/11 00:54:04;;;;;;;;;;;15.10;99.90;;;;;;5052960;28;19916;-53
2021/07/11 00:56:29;;;;;;;;;;;15.10;99.90;;;;;;5049969;28;19909;-53
2021/07/11 00:58:55;;;;;;;;;;;15.00;99.90;;;;;;5050858;28;19913;-53
2021/07/11 01:01:25;;;;;;;;;;;15.00;99.90;;;;;;5030626;28;20008;-54
2021/07/11 01:03:51;;;;;;;;;;;15.00;99.90;;;;;;5050141;28;20350;-56
2021/07/11 01:06:17;;;;;;;;;;;15.00;99.90;;;;;;5052222;28;19959;-56
2021/07/11 01:08:55;;;;;;;;;;;14.90;99.90;;;;;;5052269;28;19940;-54
2021/07/11 01:11:22;;;;;;;;;;;14.90;99.90;;;;;;5049412;28;19962;-54
2021/07/11 01:13:48;;;;;;;;;;;14.90;99.90;;;;;;5052194;28;19920;-53
2021/07/11 01:16:15;;;;;;;;;;;14.90;99.90;;;;;;5051580;28;20070;-54
2021/07/11 01:18:42;;;;;;;;;;;14.80;99.90;;;;;;5052317;28;19992;-56
2021/07/11 01:21:17;;;;;;;;;;;14.80;99.90;;;;;;5034322;28;19909;-52
2021/07/11 01:23:58;;;;;;;;;;;14.80;99.90;;;;;;5047827;28;20299;-54
2021/07/11 01:26:27;;;;;;;;;;;14.80;99.90;;;;;;5046826;28;19948;-52
2021/07/11 01:28:54;;;;;;;;;;;14.80;99.90;;;;;;5051795;28;20368;-55
2021/07/11 01:31:21;;;;;;;;;;;14.80;99.90;;;;;;5051941;28;19913;-52
2021/07/11 01:33:48;;;;;;;;;;;14.80;99.90;;;;;;5051628;28;20193;-52
2021/07/11 01:36:13;;;;;;;;;;;14.80;99.90;;;;;;5051643;28;19916;-56
2021/07/11 01:38:43;;;;;;;;;;;14.80;99.90;;;;;;5051713;28;19908;-53
2021/07/11 01:41:10;;;;;;;;;;;14.80;99.90;;;;;;5051768;28;19909;-52
2021/07/11 01:43:36;;;;;;;;;;;14.80;99.90;;;;;;5051278;28;19917;-53
2021/07/11 01:46:03;;;;;;;;;;;14.80;99.90;;;;;;5051733;28;19916;-56
2021/07/11 01:48:30;;;;;;;;;;;14.80;99.90;;;;;;5033682;28;20399;-52
2021/07/11 01:50:56;;;;;;;;;;;14.70;99.90;;;;;;5074383;22;20028;-55
2021/07/11 01:53:27;;;;;;;;;;;14.80;99.90;;;;;;5051991;28;19988;-58
2021/07/11 01:55:53;;;;;;;;;;;14.70;99.90;;;;;;5051347;28;20006;-55
2021/07/11 01:58:19;;;;;;;;;;;14.80;99.90;;;;;;5033830;28;20379;-58
2021/07/11 02:00:44;;;;;;;;;;;14.70;99.90;;;;;;5050993;28;20413;-58
2021/07/11 02:03:13;;;;;;;;;;;14.70;99.90;;;;;;5033925;28;19936;-56
2021/07/11 02:05:39;;;;;;;;;;;14.70;99.90;;;;;;5051408;28;20275;-56
2021/07/11 02:08:05;;;;;;;;;;;14.70;99.90;;;;;;5051456;28;19909;-56
2021/07/11 02:10:30;;;;;;;;;;;14.70;99.90;;;;;;5051388;28;19919;-55
2021/07/11 02:13:04;;;;;;;;;;;14.70;99.90;;;;;;5051026;28;19913;-57
2021/07/11 02:15:31;;;;;;;;;;;14.60;99.90;;;;;;5033281;28;19944;-54
2021/07/11 02:17:58;;;;;;;;;;;14.60;99.90;;;;;;5051269;28;20011;-57
2021/07/11 02:20:25;;;;;;;;;;;14.60;99.90;;;;;;5051500;28;19915;-55
2021/07/11 02:22:50;;;;;;;;;;;14.60;99.90;;;;;;5033330;28;19978;-56
2021/07/11 02:25:17;;;;;;;;;;;14.70;99.90;;;;;;5051133;28;20410;-53
2021/07/11 02:27:44;;;;;;;;;;;14.70;99.90;;;;;;5050970;28;19932;-57
2021/07/11 02:30:13;;;;;;;;;;;14.60;99.90;;;;;;5051129;28;19979;-55
2021/07/11 02:32:43;;;;;;;;;;;14.70;99.90;;;;;;5051176;28;19909;-57
2021/07/11 02:35:09;;;;;;;;;;;14.70;99.90;;;;;;5032185;28;19909;-56
2021/07/11 02:37:35;;;;;;;;;;;14.70;99.90;;;;;;5051070;28;20390;-55
2021/07/11 02:40:02;;;;;;;;;;;14.70;99.90;;;;;;5050321;28;19916;-55
2021/07/11 02:42:27;;;;;;;;;;;14.70;99.90;;;;;;5050760;28;19913;-56
2021/07/11 02:44:55;;;;;;;;;;;14.80;99.90;;;;;;5050435;28;20386;-57
2021/07/11 02:47:30;;;;;;;;;;;14.80;99.90;;;;;;5033046;28;19915;-55
2021/07/11 02:50:00;;;;;;;;;;;14.80;99.90;;;;;;5050512;28;20019;-55
2021/07/11 02:52:26;;;;;;;;;;;14.80;99.90;;;;;;5050924;28;19970;-58
2021/07/11 02:54:54;;;;;;;;;;;14.80;99.90;;;;;;5050399;28;19909;-55
2021/07/11 02:57:22;;;;;;;;;;;14.80;99.90;;;;;;5042897;28;19916;-56
2021/07/11 02:59:48;;;;;;;;;;;14.90;99.90;;;;;;5050561;28;19909;-54
2021/07/11 03:02:15;;;;;;;;;;;14.90;99.90;;;;;;5049033;28;19909;-57
2021/07/11 03:04:41;;;;;;;;;;;14.90;99.90;;;;;;5050001;28;19913;-57
2021/07/11 03:07:07;;;;;;;;;;;14.90;99.90;;;;;;5050388;28;19909;-55
2021/07/11 03:09:33;;;;;;;;;;;15.00;99.90;;;;;;5032321;28;19916;-57
2021/07/11 03:11:59;;;;;;;;;;;15.00;99.90;;;;;;5050299;28;19909;-56
2021/07/11 03:14:25;;;;;;;;;;;15.00;99.90;;;;;;5050058;28;19908;-53
2021/07/11 03:16:54;;;;;;;;;;;15.00;99.90;;;;;;5050210;28;20006;-57
2021/07/11 03:19:20;;;;;;;;;;;15.10;99.90;;;;;;5050390;28;19909;-52
2021/07/11 03:21:46;;;;;;;;;;;15.00;99.90;;;;;;5050734;28;19909;-53
2021/07/11 03:24:12;;;;;;;;;;;15.00;99.90;;;;;;5050272;28;19913;-54
2021/07/11 03:26:39;;;;;;;;;;;15.10;99.90;;;;;;5050068;28;19916;-55
2021/07/11 03:29:07;;;;;;;;;;;15.10;99.90;;;;;;5032120;28;19917;-57
2021/07/11 03:31:33;;;;;;;;;;;15.10;99.90;;;;;;5049842;28;19956;-53
2021/07/11 03:33:59;;;;;;;;;;;15.10;99.90;;;;;;5049955;28;19963;-56
2021/07/11 03:36:24;;;;;;;;;;;15.10;99.90;;;;;;5049631;28;20308;-51
2021/07/11 03:38:54;;;;;;;;;;;15.10;99.90;;;;;;5049930;28;20514;-58
2021/07/11 03:41:21;;;;;;;;;;;15.10;99.90;;;;;;5031992;28;19927;-55
2021/07/11 03:43:52;;;;;;;;;;;15.10;99.90;;;;;;5031377;28;19917;-56
2021/07/11 03:46:19;;;;;;;;;;;15.20;99.90;;;;;;5043068;28;19909;-57
2021/07/11 03:48:47;;;;;;;;;;;15.20;99.90;;;;;;5050206;28;19984;-58
2021/07/11 03:51:13;;;;;;;;;;;15.20;99.90;;;;;;5049943;28;20338;-57
2021/07/11 03:53:39;;;;;;;;;;;15.30;99.90;;;;;;5049950;28;19916;-53
2021/07/11 03:56:05;;;;;;;;;;;15.40;99.90;;;;;;5031563;28;19909;-55
2021/07/11 03:58:33;;;;;;;;;;;15.40;99.90;;;;;;5049552;28;20012;-58
2021/07/11 04:00:59;;;;;;;;;;;15.50;99.90;;;;;;5049754;28;19908;-54
2021/07/11 04:03:26;;;;;;;;;;;15.50;99.90;;;;;;5049612;28;19920;-55
2021/07/11 04:05:52;;;;;;;;;;;15.50;99.90;;;;;;5044978;28;19912;-54
2021/07/11 04:08:19;;;;;;;;;;;15.60;99.90;;;;;;5031773;28;19909;-55
2021/07/11 04:10:45;;;;;;;;;;;15.70;99.90;;;;;;5042814;28;20375;-55
2021/07/11 04:13:15;;;;;;;;;;;15.70;99.90;;;;;;5050652;28;19916;-58
2021/07/11 04:15:43;;;;;;;;;;;15.80;99.90;;;;;;5035701;28;20382;-53
2021/07/11 04:18:11;;;;;;;;;;;15.90;99.90;;;;;;5035431;28;19909;-55
2021/07/11 04:20:38;;;;;;;;;;;15.90;99.90;;;;;;5053646;28;19908;-56
2021/07/11 04:23:04;;;;;;;;;;;15.90;99.90;;;;;;5053471;28;19916;-55
2021/07/11 04:25:34;;;;;;;;;;;16.00;99.90;;;;;;5053071;28;19916;-56
2021/07/11 04:28:00;;;;;;;;;;;16.00;99.90;;;;;;5052996;28;20334;-58
2021/07/11 04:30:26;;;;;;;;;;;16.10;99.90;;;;;;5053234;28;20367;-55
2021/07/11 04:32:51;;;;;;;;;;;16.10;99.90;;;;;;5052862;28;19909;-56
2021/07/11 04:35:17;;;;;;;;;;;16.10;99.90;;;;;;5035017;28;19909;-56
2021/07/11 04:37:42;;;;;;;;;;;16.20;99.90;;;;;;5052998;28;19909;-56
2021/07/11 04:40:08;;;;;;;;;;;16.30;99.90;;;;;;5052654;28;19996;-58
2021/07/11 04:42:34;;;;;;;;;;;16.30;99.90;;;;;;5052580;28;20367;-57
2021/07/11 04:45:02;;;;;;;;;;;16.30;99.90;;;;;;5052684;28;19909;-58
2021/07/11 04:47:28;;;;;;;;;;;16.40;99.90;;;;;;5053234;28;19909;-57
2021/07/11 04:49:53;;;;;;;;;;;16.40;99.90;;;;;;5052638;28;19924;-58
2021/07/11 04:52:19;;;;;;;;;;;16.40;99.90;;;;;;5052993;28;19909;-58
2021/07/11 04:54:44;;;;;;;;;;;16.50;99.90;;;;;;5034629;28;20004;-56
2021/07/11 04:57:10;;;;;;;;;;;16.50;99.90;;;;;;5052499;28;19956;-56
2021/07/11 04:59:35;;;;;;;;;;;16.50;99.90;;;;;;5052373;28;19909;-55
2021/07/11 05:02:01;;;;;;;;;;;16.50;99.90;;;;;;5034429;28;19916;-56
2021/07/11 05:04:27;;;;;;;;;;;16.50;99.90;;;;;;5052184;28;20394;-55
2021/07/11 05:06:52;;;;;;;;;;;16.50;99.90;;;;;;5052254;28;19909;-55
2021/07/11 05:09:18;;;;;;;;;;;16.50;99.90;;;;;;5052148;28;20063;-56
2021/07/11 05:11:43;;;;;;;;;;;16.60;99.90;;;;;;5034393;28;19915;-56
2021/07/11 05:14:09;;;;;;;;;;;16.70;99.90;;;;;;5051993;28;19993;-52
2021/07/11 05:16:34;;;;;;;;;;;16.70;99.90;;;;;;5034138;28;19931;-54
2021/07/11 05:19:00;;;;;;;;;;;16.80;99.90;;;;;;5052518;28;19909;-58
2021/07/11 05:21:26;;;;;;;;;;;16.80;99.90;;;;;;5052401;28;19909;-54
2021/07/11 05:23:51;;;;;;;;;;;16.80;99.90;;;;;;5052131;28;20375;-54
2021/07/11 05:26:17;;;;;;;;;;;16.80;99.90;;;;;;5050758;28;19908;-55
2021/07/11 05:28:44;;;;;;;;;;;16.90;99.90;;;;;;5052026;28;20375;-54
2021/07/11 05:31:11;;;;;;;;;;;17.00;99.90;;;;;;5051834;28;20294;-56
2021/07/11 05:33:36;;;;;;;;;;;17.00;99.90;;;;;;5033434;28;19913;-56
2021/07/11 05:36:02;;;;;;;;;;;17.10;99.90;;;;;;5051733;28;20375;-53
2021/07/11 05:38:27;;;;;;;;;;;17.20;99.90;;;;;;5051730;28;19909;-54
2021/07/11 05:40:53;;;;;;;;;;;17.20;99.90;;;;;;5051603;28;19959;-56
2021/07/11 05:43:18;;;;;;;;;;;17.30;99.90;;;;;;5051189;28;20371;-57
2021/07/11 05:45:44;;;;;;;;;;;17.40;99.90;;;;;;5051926;28;19912;-59
2021/07/11 05:48:09;;;;;;;;;;;17.50;99.90;;;;;;5051615;28;19931;-57
2021/07/11 05:50:35;;;;;;;;;;;17.50;99.90;;;;;;5051704;28;19917;-55
2021/07/11 05:53:00;;;;;;;;;;;17.60;99.90;;;;;;5051760;28;19909;-56
2021/07/11 05:55:26;;;;;;;;;;;17.70;99.90;;;;;;5051336;28;19913;-58
2021/07/11 05:57:51;;;;;;;;;;;17.80;99.90;;;;;;5033784;28;19904;-57
2021/07/11 06:00:17;;;;;;;;;;;17.80;99.90;;;;;;5051211;28;19909;-58
2021/07/11 06:02:42;;;;;;;;;;;17.90;99.90;;;;;;5051412;28;19967;-57
2021/07/11 06:05:08;;;;;;;;;;;18.00;99.90;;;;;;5051096;28;19915;-57
2021/07/11 06:07:34;;;;;;;;;;;18.00;99.90;;;;;;5051435;28;19912;-56
2021/07/11 06:09:59;;;;;;;;;;;18.10;99.90;;;;;;5051215;28;19909;-56
2021/07/11 06:12:25;;;;;;;;;;;18.20;99.90;;;;;;5033319;28;19956;-54
2021/07/11 06:14:52;;;;;;;;;;;18.20;99.90;;;;;;5051031;28;19939;-55
2021/07/11 06:17:17;;;;;;;;;;;18.30;99.90;;;;;;5033812;28;19935;-59
2021/07/11 06:19:43;;;;;;;;;;;18.30;99.90;;;;;;5051190;28;19916;-56
2021/07/11 06:22:08;;;;;;;;;;;18.30;99.90;;;;;;5051171;28;19909;-56
2021/07/11 06:24:34;;;;;;;;;;;18.30;99.90;;;;;;5050787;28;20329;-56
2021/07/11 06:26:59;;;;;;;;;;;18.30;99.90;;;;;;5051182;28;19909;-57
2021/07/11 06:29:25;;;;;;;;;;;18.40;99.90;;;;;;5032915;28;20338;-55
2021/07/11 06:31:50;;;;;;;;;;;18.40;99.90;;;;;;5033050;28;19916;-54
2021/07/11 06:34:16;;;;;;;;;;;18.50;99.90;;;;;;5050916;28;20383;-58
2021/07/11 06:36:41;;;;;;;;;;;18.60;99.90;;;;;;5050215;28;20120;-56
2021/07/11 06:39:07;;;;;;;;;;;18.60;99.90;;;;;;5050680;28;19935;-53
2021/07/11 06:41:32;;;;;;;;;;;18.70;99.90;;;;;;5050720;28;20003;-56
2021/07/11 06:43:58;;;;;;;;;;;18.90;99.90;;;;;;5050452;28;20317;-55
2021/07/11 06:46:23;;;;;;;;;;;19.10;99.90;;;;;;5050763;28;19915;-53
2021/07/11 06:48:49;;;;;;;;;;;19.30;99.90;;;;;;5033069;28;20350;-56
2021/07/11 06:51:14;;;;;;;;;;;19.50;99.90;;;;;;5049931;28;20011;-57
2021/07/11 06:53:40;;;;;;;;;;;19.60;99.90;;;;;;5050417;28;19943;-59
2021/07/11 06:56:06;;;;;;;;;;;19.80;99.90;;;;;;5050337;28;19909;-53
2021/07/11 06:58:31;;;;;;;;;;;20.00;99.90;;;;;;5032722;28;19909;-58
2021/07/11 07:00:57;;;;;;;;;;;20.10;99.90;;;;;;5050178;28;19913;-55
2021/07/11 07:03:22;;;;;;;;;;;20.20;99.90;;;;;;5050680;28;19973;-56
2021/07/11 07:05:47;;;;;;;;;;;20.20;99.90;;;;;;5049911;28;19909;-53
2021/07/11 07:08:13;;;;;;;;;;;20.30;99.90;;;;;;5032395;28;20295;-57
2021/07/11 07:10:39;;;;;;;;;;;20.50;99.90;;;;;;5032250;28;19909;-58
2021/07/11 07:13:04;;;;;;;;;;;20.70;99.90;;;;;;5032051;28;19948;-54
2021/07/11 07:15:30;;;;;;;;;;;20.80;99.90;;;;;;5032249;28;19909;-57
2021/07/11 07:17:55;;;;;;;;;;;21.00;99.90;;;;;;5047962;28;19992;-58
2021/07/11 07:20:21;;;;;;;;;;;21.10;99.90;;;;;;5050215;28;19916;-56
2021/07/11 07:22:46;;;;;;;;;;;21.20;99.90;;;;;;5049996;28;20316;-54
2021/07/11 07:25:13;;;;;;;;;;;21.40;99.90;;;;;;5015243;28;19915;-56
2021/07/11 07:27:39;;;;;;;;;;;21.50;99.90;;;;;;5032173;28;19916;-59
2021/07/11 07:30:05;;;;;;;;;;;21.70;99.90;;;;;;5031963;28;19935;-58
2021/07/11 07:32:31;;;;;;;;;;;21.80;99.90;;;;;;5031870;28;19948;-57
2021/07/11 07:34:56;;;;;;;;;;;21.90;99.90;;;;;;5049398;28;19944;-59
2021/07/11 07:37:21;;;;;;;;;;;22.00;99.90;;;;;;5049738;28;19909;-56
2021/07/11 07:39:47;;;;;;;;;;;22.20;99.90;;;;;;5031975;28;19909;-59
2021/07/11 07:42:13;;;;;;;;;;;22.40;99.90;;;;;;5049766;28;19909;-58
2021/07/11 07:44:38;;;;;;;;;;;22.40;99.90;;;;;;5049227;28;20398;-58
2021/07/11 07:47:04;;;;;;;;;;;22.30;99.90;;;;;;5050290;28;19917;-54
2021/07/11 07:49:29;;;;;;;;;;;22.50;99.90;;;;;;5052983;28;19916;-57
2021/07/11 07:51:55;;;;;;;;;;;22.60;99.90;;;;;;5053916;28;19912;-59
2021/07/11 07:54:20;;;;;;;;;;;22.70;99.90;;;;;;5036030;28;19915;-56
2021/07/11 07:56:46;;;;;;;;;;;22.90;99.90;;;;;;5053331;28;20027;-57
2021/07/11 07:59:11;;;;;;;;;;;22.80;99.90;;;;;;5053654;28;19963;-59
2021/07/11 08:01:38;;;;;;;;;;;23.00;99.90;;;;;;5053390;28;20023;-59
2021/07/11 08:04:04;;;;;;;;;;;23.20;99.90;;;;;;5053421;28;20474;-58
2021/07/11 08:06:33;;;;;;;;;;;23.40;99.90;;;;;;5053089;28;19908;-59
2021/07/11 08:08:58;;;;;;;;;;;23.50;99.90;;;;;;5053437;28;19909;-60
2021/07/11 08:11:24;;;;;;;;;;;23.70;99.90;;;;;;5053482;28;19916;-58
2021/07/11 08:13:49;;;;;;;;;;;23.90;99.90;;;;;;5053021;28;20295;-56
2021/07/11 08:16:15;;;;;;;;;;;23.90;99.90;;;;;;5035490;28;19998;-57
2021/07/11 08:18:40;;;;;;;;;;;24.00;99.90;;;;;;5053362;28;19920;-59
2021/07/11 08:21:06;;;;;;;;;;;24.10;99.90;;;;;;5053274;28;20280;-59
2021/07/11 08:23:32;;;;;;;;;;;24.20;99.90;;;;;;5053013;28;19920;-58
2021/07/11 08:25:57;;;;;;;;;;;24.20;99.90;;;;;;5052794;28;20003;-59
2021/07/11 08:28:23;;;;;;;;;;;24.30;99.90;;;;;;5053353;28;20375;-57
2021/07/11 08:30:48;;;;;;;;;;;24.60;99.90;;;;;;5034984;28;19909;-58
2021/07/11 08:33:14;;;;;;;;;;;24.70;99.90;;;;;;5052642;28;20520;-56
2021/07/11 08:35:39;;;;;;;;;;;24.50;99.90;;;;;;5052439;28;20371;-59
2021/07/11 08:38:05;;;;;;;;;;;24.70;99.90;;;;;;5035146;28;19909;-59
2021/07/11 08:40:32;;;;;;;;;;;25.00;99.90;;;;;;5034969;28;20390;-60
2021/07/11 08:42:58;;;;;;;;;;;25.20;99.90;;;;;;5052526;28;19968;-59
2021/07/11 08:45:24;;;;;;;;;;;25.20;99.90;;;;;;5053013;28;19951;-58
2021/07/11 08:47:49;;;;;;;;;;;25.50;99.90;;;;;;5053005;28;19909;-61
2021/07/11 08:50:15;;;;;;;;;;;25.30;99.90;;;;;;5053171;28;20383;-60
2021/07/11 08:52:41;;;;;;;;;;;25.30;99.90;;;;;;5052797;28;20003;-60
2021/07/11 08:55:25;;;;;;;;;;;25.50;99.90;;;;;;5052474;28;20411;-61
2021/07/11 08:57:51;;;;;;;;;;;25.70;99.90;;;;;;5052370;28;19909;-59
2021/07/11 09:00:17;;;;;;;;;;;25.90;99.90;;;;;;5052328;28;19913;-59
2021/07/11 09:02:42;;;;;;;;;;;25.90;99.90;;;;;;5052038;28;19913;-56
2021/07/11 09:05:19;;;;;;;;;;;26.20;99.90;;;;;;5051822;28;19951;-60
2021/07/11 09:07:55;;;;;;;;;;;26.00;99.40;;;;;;5052231;28;19924;-59
2021/07/11 09:10:26;;;;;;;;;;;26.10;99.90;;;;;;5044933;28;19977;-59
2021/07/11 09:12:53;;;;;;;;;;;26.30;99.90;;;;;;5052163;28;19967;-58
2021/07/11 09:15:27;;;;;;;;;;;26.40;99.60;;;;;;5034363;28;19909;-55
2021/07/11 09:17:54;;;;;;;;;;;26.20;99.20;;;;;;5052439;28;19944;-60
2021/07/11 09:20:19;;;;;;;;;;;26.20;99.00;;;;;;5034465;28;19995;-57
2021/07/11 09:22:54;;;;;;;;;;;26.20;99.20;;;;;;5052267;28;20055;-60
2021/07/11 09:25:20;;;;;;;;;;;26.40;99.50;;;;;;5051077;28;19916;-60
2021/07/11 09:27:46;;;;;;;;;;;26.80;99.30;;;;;;5052004;28;19909;-58
2021/07/11 09:30:15;;;;;;;;;;;27.00;99.60;;;;;;5051873;28;19908;-59
2021/07/11 09:32:41;;;;;;;;;;;27.00;99.80;;;;;;5047211;28;19909;-59
2021/07/11 09:35:13;;;;;;;;;;;27.20;98.00;;;;;;5051741;28;19919;-59
2021/07/11 09:37:59;;;;;;;;;;;27.40;97.40;;;;;;5051731;28;19978;-56
2021/07/11 09:40:25;;;;;;;;;;;27.40;97.00;;;;;;5044732;28;19909;-56
2021/07/11 09:42:51;;;;;;;;;;;27.60;96.70;;;;;;5051163;28;20000;-58
2021/07/11 09:45:21;;;;;;;;;;;27.60;96.30;;;;;;5051909;28;19967;-59
2021/07/11 09:47:48;;;;;;;;;;;27.60;96.30;;;;;;5051977;28;19912;-58
2021/07/11 09:50:21;;;;;;;;;;;27.60;95.70;;;;;;5033935;28;19923;-57
2021/07/11 09:52:51;;;;;;;;;;;27.80;97.30;;;;;;5051510;28;19962;-59
2021/07/11 09:55:19;;;;;;;;;;;27.90;95.00;;;;;;5043496;28;20004;-61
2021/07/11 09:57:59;;;;;;;;;;;27.90;95.20;;;;;;5051560;28;19974;-61
2021/07/11 10:00:28;;;;;;;;;;;28.00;94.40;;;;;;5044495;28;19909;-60
2021/07/11 10:02:58;;;;;;;;;;;27.90;93.20;;;;;;5033272;28;19967;-59
2021/07/11 10:05:24;;;;;;;;;;;27.90;94.00;;;;;;5050957;28;19909;-59
2021/07/11 10:07:50;;;;;;;;;;;27.90;93.20;;;;;;5051082;28;19955;-60
2021/07/11 10:10:26;;;;;;;;;;;28.00;93.20;;;;;;5051213;28;19912;-56
2021/07/11 10:12:52;;;;;;;;;;;27.90;93.30;;;;;;5051111;28;19913;-61
2021/07/11 10:15:19;;;;;;;;;;;27.90;94.20;;;;;;5051285;28;19916;-58
2021/07/11 10:17:47;;;;;;;;;;;28.00;93.00;;;;;;5051578;28;19980;-58
2021/07/11 10:20:14;;;;;;;;;;;28.10;92.80;;;;;;5033348;28;20359;-60
2021/07/11 10:22:40;;;;;;;;;;;28.00;92.20;;;;;;5051145;28;19956;-61
2021/07/11 10:25:09;;;;;;;;;;;28.10;92.80;;;;;;5050734;28;19912;-61
2021/07/11 10:27:35;;;;;;;;;;;28.10;93.30;;;;;;5045777;28;19909;-60
2021/07/11 10:30:00;;;;;;;;;;;28.30;93.90;;;;;;5051021;28;19916;-61
2021/07/11 10:32:27;;;;;;;;;;;28.50;91.60;;;;;;5050733;28;20299;-61
2021/07/11 10:34:53;;;;;;;;;;;28.60;92.30;;;;;;5050511;28;19909;-60
2021/07/11 10:37:23;;;;;;;;;;;28.70;91.90;;;;;;5050939;28;20329;-59
2021/07/11 10:40:04;;;;;;;;;;;28.80;92.40;;;;;;5033118;28;19916;-58
2021/07/11 10:42:30;;;;;;;;;;;28.90;92.30;;;;;;5047474;28;19924;-60
2021/07/11 10:45:03;;;;;;;;;;;29.10;93.50;;;;;;5050146;28;19928;-60
2021/07/11 10:47:28;;;;;;;;;;;29.00;91.20;;;;;;5050815;28;19931;-61
2021/07/11 10:49:55;;;;;;;;;;;28.80;92.20;;;;;;5032810;28;20426;-61
2021/07/11 10:52:22;;;;;;;;;;;28.30;92.30;;;;;;5050684;28;19909;-61
2021/07/11 10:54:50;;;;;;;;;;;28.30;92.50;;;;;;5046632;28;20510;-60
2021/07/11 10:57:33;;;;;;;;;;;28.10;93.40;;;;;;5043281;28;19974;-61
2021/07/11 11:00:18;;;;;;;;;;;28.10;92.60;;;;;;5047992;28;20383;-60
2021/07/11 11:02:45;;;;;;;;;;;28.20;92.60;;;;;;5050165;28;19913;-59
2021/07/11 11:05:20;;;;;;;;;;;28.20;93.00;;;;;;5050022;28;19931;-58
2021/07/11 11:07:46;;;;;;;;;;;28.00;93.20;;;;;;5032169;28;19919;-60
2021/07/11 11:10:21;;;;;;;;;;;27.90;93.00;;;;;;5050151;28;19925;-59
2021/07/11 11:13:08;;;;;;;;;;;27.90;94.00;;;;;;5050102;28;19920;-55
2021/07/11 11:15:35;;;;;;;;;;;27.90;93.00;;;;;;5044149;28;19931;-58
2021/07/11 11:18:14;;;;;;;;;;;27.60;94.30;;;;;;5050293;28;19916;-57
2021/07/11 11:20:39;;;;;;;;;;;27.30;94.00;;;;;;5050560;28;19908;-57
2021/07/11 11:23:09;;;;;;;;;;;27.10;94.50;;;;;;5048792;28;19920;-59
2021/07/11 11:25:35;;;;;;;;;;;26.80;95.50;;;;;;5049777;28;19908;-57
2021/07/11 11:28:01;;;;;;;;;;;26.70;95.40;;;;;;5050177;28;20180;-59
2021/07/11 11:30:26;;;;;;;;;;;26.60;95.80;;;;;;5049847;28;19955;-57
2021/07/11 11:32:56;;;;;;;;;;;26.50;96.70;;;;;;5049771;28;19909;-57
2021/07/11 11:35:22;;;;;;;;;;;26.30;96.80;;;;;;5049850;28;19909;-59
2021/07/11 11:37:54;;;;;;;;;;;26.30;96.90;;;;;;5046517;28;19909;-58
2021/07/11 11:40:19;;;;;;;;;;;26.30;96.70;;;;;;5041703;28;19909;-56
2021/07/11 11:43:04;;;;;;;;;;;26.40;96.00;;;;;;5049348;28;19942;-58
2021/07/11 11:45:31;;;;;;;;;;;26.30;96.80;;;;;;5043798;28;19963;-58
2021/07/11 11:48:02;;;;;;;;;;;26.40;96.70;;;;;;5049424;28;20134;-56
2021/07/11 11:50:29;;;;;;;;;;;26.50;97.50;;;;;;5049974;28;19963;-57
2021/07/11 11:53:05;;;;;;;;;;;26.50;97.00;;;;;;5049806;28;19913;-55
2021/07/11 11:55:30;;;;;;;;;;;26.40;96.50;;;;;;5049758;28;19916;-55
2021/07/11 11:58:04;;;;;;;;;;;26.50;97.40;;;;;;5049694;28;19909;-59
2021/07/11 12:00:29;;;;;;;;;;;26.50;97.70;;;;;;5049374;28;19916;-57
2021/07/11 12:03:02;;;;;;;;;;;26.60;98.20;;;;;;5049428;28;19917;-59
2021/07/11 12:05:29;;;;;;;;;;;26.70;98.40;;;;;;5031388;28;19909;-59
2021/07/11 12:07:56;;;;;;;;;;;26.80;97.40;;;;;;5049499;28;20334;-59
2021/07/11 12:10:22;;;;;;;;;;;26.80;98.10;;;;;;5049586;28;19916;-59
2021/07/11 12:12:55;;;;;;;;;;;26.60;97.60;;;;;;5049533;28;19909;-58
2021/07/11 12:15:27;;;;;;;;;;;26.50;98.70;;;;;;5042270;28;19909;-58
2021/07/11 12:17:58;;;;;;;;;;;26.40;98.20;;;;;;5031978;28;20105;-58
2021/07/11 12:20:23;;;;;;;;;;;26.30;98.50;;;;;;5032235;28;19912;-58
2021/07/11 12:22:49;;;;;;;;;;;26.20;99.20;;;;;;5049349;28;20437;-58
2021/07/11 12:25:17;;;;;;;;;;;26.10;98.90;;;;;;5049041;28;19928;-59
2021/07/11 12:27:44;;;;;;;;;;;26.10;99.90;;;;;;5049861;28;19909;-59
2021/07/11 12:30:11;;;;;;;;;;;26.00;99.30;;;;;;5049446;28;20314;-60
2021/07/11 12:32:50;;;;;;;;;;;26.00;99.40;;;;;;5031873;28;19916;-59
2021/07/11 12:35:16;;;;;;;;;;;25.90;99.90;;;;;;5045218;28;19909;-56
2021/07/11 12:38:01;;;;;;;;;;;25.80;99.70;;;;;;5035039;28;19909;-58
2021/07/11 12:40:27;;;;;;;;;;;25.80;99.90;;;;;;5046941;28;19909;-57
2021/07/11 12:43:29;;;;;;;;;;;25.80;99.90;;;;;;5048179;28;19978;-59
2021/07/11 12:45:59;;;;;;;;;;;25.80;99.90;;;;;;5052856;28;19917;-59
2021/07/11 12:48:38;;;;;;;;;;;25.80;99.90;;;;;;5035077;28;19999;-58
2021/07/11 12:51:12;;;;;;;;;;;25.90;99.90;;;;;;5052051;28;19916;-55
2021/07/11 12:53:38;;;;;;;;;;;25.80;99.50;;;;;;5034525;28;19909;-57
2021/07/11 12:56:04;;;;;;;;;;;26.00;99.90;;;;;;5052039;28;19916;-59
2021/07/11 12:58:37;;;;;;;;;;;26.00;99.80;;;;;;5052615;28;19948;-58
2021/07/11 13:01:03;;;;;;;;;;;26.10;99.80;;;;;;5034077;28;19912;-58
2021/07/11 13:03:29;;;;;;;;;;;26.30;99.90;;;;;;5052342;28;19913;-58
2021/07/11 13:05:57;;;;;;;;;;;26.30;98.90;;;;;;5052088;28;19913;-57
2021/07/11 13:08:22;;;;;;;;;;;26.40;98.50;;;;;;5052285;28;19909;-54
2021/07/11 13:10:48;;;;;;;;;;;26.30;98.80;;;;;;5052154;28;19913;-57
2021/07/11 13:13:14;;;;;;;;;;;26.10;98.80;;;;;;5052331;28;20290;-56
2021/07/11 13:15:39;;;;;;;;;;;26.00;99.80;;;;;;5052362;28;20322;-58
2021/07/11 13:18:06;;;;;;;;;;;25.90;99.00;;;;;;5052370;28;19909;-58
2021/07/11 13:20:32;;;;;;;;;;;26.00;99.90;;;;;;5052213;28;20394;-58
2021/07/11 13:22:57;;;;;;;;;;;25.80;99.90;;;;;;5052040;28;20359;-58
2021/07/11 13:25:23;;;;;;;;;;;25.60;99.60;;;;;;5051689;28;19909;-59
2021/07/11 13:27:48;;;;;;;;;;;25.60;99.90;;;;;;5052007;28;19909;-56
2021/07/11 13:30:14;;;;;;;;;;;25.60;99.30;;;;;;5051763;28;19921;-56
2021/07/11 13:32:41;;;;;;;;;;;25.50;99.90;;;;;;5051625;28;19909;-58
2021/07/11 13:35:06;;;;;;;;;;;25.50;99.90;;;;;;5051571;28;19909;-55
2021/07/11 13:37:34;;;;;;;;;;;25.60;99.60;;;;;;5051740;28;19908;-57
2021/07/11 13:40:00;;;;;;;;;;;25.50;99.50;;;;;;5051489;28;19908;-57
2021/07/11 13:42:25;;;;;;;;;;;25.40;99.90;;;;;;5033745;28;20012;-58
2021/07/11 13:44:51;;;;;;;;;;;25.40;99.70;;;;;;5051808;28;19965;-58
2021/07/11 13:47:16;;;;;;;;;;;25.40;99.90;;;;;;5051032;28;19908;-57
2021/07/11 13:49:42;;;;;;;;;;;25.40;99.90;;;;;;5033674;28;19917;-58
2021/07/11 13:52:07;;;;;;;;;;;25.30;99.90;;;;;;5033750;28;19909;-56
2021/07/11 13:54:33;;;;;;;;;;;25.30;99.90;;;;;;5051787;28;19908;-58
2021/07/11 13:56:58;;;;;;;;;;;25.30;99.90;;;;;;5052009;28;19932;-57
2021/07/11 13:59:24;;;;;;;;;;;25.20;99.90;;;;;;5051332;28;19909;-58
2021/07/11 14:01:49;;;;;;;;;;;25.20;99.70;;;;;;5051393;28;19944;-59
2021/07/11 14:04:15;;;;;;;;;;;25.20;99.90;;;;;;5033395;28;20374;-57
2021/07/11 14:06:40;;;;;;;;;;;25.10;99.90;;;;;;5050766;28;19963;-58
2021/07/11 14:09:06;;;;;;;;;;;25.10;99.90;;;;;;5051232;28;19909;-58
2021/07/11 14:11:31;;;;;;;;;;;25.00;99.90;;;;;;5033043;28;19917;-57
2021/07/11 14:13:57;;;;;;;;;;;25.00;99.90;;;;;;5033225;28;19912;-56
2021/07/11 14:16:22;;;;;;;;;;;25.00;99.90;;;;;;5051110;28;19948;-57